createdAt,value
2019-03-19T00:01:58.350Z,21.80
2019-03-19T00:05:14.410Z,21.80
2019-03-19T00:08:30.464Z,21.80
2019-03-19T00:11:46.320Z,21.70
2019-03-19T00:15:02.100Z,21.80
2019-03-19T00:18:18.061Z,21.80
2019-03-19T00:21:33.867Z,21.70
2019-03-19T00:24:49.958Z,21.70
2019-03-19T00:28:05.936Z,21.70
2019-03-19T00:31:21.984Z,21.70
2019-03-19T00:34:38.039Z,21.70
2019-03-19T00:37:51.693Z,21.70
2019-03-19T00:41:14.371Z,21.70
2019-03-19T00:44:29.766Z,21.70
2019-03-19T00:47:45.062Z,21.70
2019-03-19T00:51:00.319Z,21.70
2019-03-19T00:54:15.595Z,21.70
2019-03-19T00:57:31.711Z,21.70
2019-03-19T01:00:45.360Z,21.70
2019-03-19T01:04:00.597Z,21.60
2019-03-19T01:07:16.515Z,21.70
2019-03-19T01:10:32.397Z,21.60
2019-03-19T01:13:47.660Z,21.70
2019-03-19T01:17:03.783Z,21.60
2019-03-19T01:20:19.631Z,21.60
2019-03-19T01:23:35.730Z,21.60
2019-03-19T01:26:50.970Z,21.60
2019-03-19T01:30:06.328Z,21.60
2019-03-19T01:33:22.373Z,21.60
2019-03-19T01:36:38.259Z,21.60
2019-03-19T01:39:53.525Z,21.60
2019-03-19T01:43:09.542Z,21.60
2019-03-19T01:46:24.853Z,21.60
2019-03-19T01:49:40.597Z,21.60
2019-03-19T01:52:54.160Z,21.60
2019-03-19T01:56:16.829Z,21.60
2019-03-19T01:59:32.065Z,21.60
2019-03-19T02:02:45.709Z,21.60
2019-03-19T02:06:08.397Z,21.60
2019-03-19T02:09:24.132Z,21.60
2019-03-19T02:12:39.376Z,21.60
2019-03-19T02:15:55.267Z,21.50
2019-03-19T02:19:11.196Z,21.60
2019-03-19T02:22:27.053Z,21.60
2019-03-19T02:25:42.660Z,21.60
2019-03-19T02:28:58.373Z,21.60
2019-03-19T02:32:14.087Z,21.50
2019-03-19T02:35:30.175Z,21.50
2019-03-19T02:38:45.713Z,21.50
2019-03-19T02:42:01.975Z,21.50
2019-03-19T02:45:17.557Z,21.50
2019-03-19T02:48:33.202Z,21.50
2019-03-19T02:51:48.950Z,21.50
2019-03-19T02:55:04.649Z,21.50
2019-03-19T02:58:20.600Z,21.50
2019-03-19T03:01:38.698Z,21.50
2019-03-19T03:04:54.536Z,21.50
2019-03-19T03:08:10.269Z,21.50
2019-03-19T03:11:26.038Z,21.50
2019-03-19T03:14:39.692Z,21.50
2019-03-19T03:18:02.378Z,21.50
2019-03-19T03:21:18.110Z,21.50
2019-03-19T03:24:34.233Z,21.50
2019-03-19T03:27:49.887Z,21.50
2019-03-19T03:31:03.496Z,21.50
2019-03-19T03:34:19.085Z,21.50
2019-03-19T03:37:35.109Z,21.50
2019-03-19T03:40:51.104Z,21.40
2019-03-19T03:44:07.108Z,21.50
2019-03-19T03:47:23.097Z,21.50
2019-03-19T03:50:38.681Z,21.40
2019-03-19T03:53:54.393Z,21.40
2019-03-19T03:57:07.987Z,21.40
2019-03-19T04:00:23.394Z,21.40
2019-03-19T04:03:38.875Z,21.40
2019-03-19T04:06:54.052Z,21.40
2019-03-19T04:10:09.884Z,21.40
2019-03-19T04:13:25.654Z,21.40
2019-03-19T04:16:41.326Z,21.40
2019-03-19T04:19:57.392Z,21.40
2019-03-19T04:23:13.477Z,21.40
2019-03-19T04:26:29.115Z,21.40
2019-03-19T04:29:45.006Z,21.40
2019-03-19T04:33:00.869Z,21.40
2019-03-19T04:36:16.800Z,21.40
2019-03-19T04:39:32.535Z,21.40
2019-03-19T04:42:48.573Z,21.40
2019-03-19T04:46:04.399Z,21.40
2019-03-19T04:49:19.599Z,21.40
2019-03-19T04:52:35.567Z,21.40
2019-03-19T04:55:51.652Z,21.40
2019-03-19T04:59:07.265Z,21.40
2019-03-19T05:02:23.080Z,21.40
2019-03-19T05:05:39.088Z,21.40
2019-03-19T05:08:54.756Z,21.40
2019-03-19T05:12:10.827Z,21.40
2019-03-19T05:15:26.865Z,21.40
2019-03-19T05:18:42.151Z,21.40
2019-03-19T05:21:58.016Z,21.40
2019-03-19T05:25:11.665Z,21.40
2019-03-19T05:28:34.358Z,21.40
2019-03-19T05:31:50.039Z,21.30
2019-03-19T05:35:06.021Z,21.30
2019-03-19T05:38:21.716Z,21.40
2019-03-19T05:41:37.841Z,21.40
2019-03-19T05:44:53.581Z,21.40
2019-03-19T05:48:09.365Z,21.40
2019-03-19T05:51:25.370Z,21.40
2019-03-19T05:54:40.653Z,21.40
2019-03-19T05:57:56.549Z,21.40
2019-03-19T06:01:12.375Z,21.30
2019-03-19T06:04:27.941Z,21.30
2019-03-19T06:07:43.229Z,21.30
2019-03-19T06:10:59.020Z,21.30
2019-03-19T06:14:15.108Z,21.30
2019-03-19T06:17:31.060Z,21.30
2019-03-19T06:20:46.774Z,21.30
2019-03-19T06:24:02.017Z,21.30
2019-03-19T06:27:17.939Z,21.30
2019-03-19T06:30:33.712Z,21.30
2019-03-19T06:33:49.689Z,21.30
2019-03-19T06:37:05.541Z,21.30
2019-03-19T06:40:21.570Z,21.30
2019-03-19T06:43:37.374Z,21.30
2019-03-19T06:46:53.228Z,21.30
2019-03-19T06:50:09.451Z,21.30
2019-03-19T06:53:25.234Z,21.30
2019-03-19T06:56:38.853Z,21.30
2019-03-19T07:00:01.542Z,21.30
2019-03-19T07:03:16.809Z,21.30
2019-03-19T07:06:32.741Z,21.30
2019-03-19T07:09:48.705Z,21.30
2019-03-19T07:12:51.950Z,21.30
2019-03-19T07:16:14.649Z,21.30
2019-03-19T07:19:37.340Z,21.30
2019-03-19T07:22:52.953Z,21.30
2019-03-19T07:26:09.005Z,21.30
2019-03-19T07:29:25.041Z,21.30
2019-03-19T07:32:40.932Z,21.30
2019-03-19T07:35:56.224Z,21.30
2019-03-19T07:39:12.021Z,21.40
2019-03-19T07:42:27.290Z,21.40
2019-03-19T07:45:43.513Z,21.40
2019-03-19T07:48:58.781Z,21.40
2019-03-19T07:52:13.977Z,21.40
2019-03-19T07:55:30.023Z,21.40
2019-03-19T07:58:45.918Z,21.40
2019-03-19T08:02:02.090Z,21.40
2019-03-19T08:05:18.090Z,21.40
2019-03-19T08:08:33.815Z,21.50
2019-03-19T08:11:49.225Z,21.50
2019-03-19T08:15:05.142Z,21.50
2019-03-19T08:18:21.325Z,21.50
2019-03-19T08:21:37.210Z,21.50
2019-03-19T08:24:53.126Z,21.50
2019-03-19T08:28:08.799Z,21.50
2019-03-19T08:31:24.033Z,21.60
2019-03-19T08:34:39.697Z,21.60
2019-03-19T08:37:55.770Z,21.60
2019-03-19T08:41:11.427Z,21.60
2019-03-19T08:44:28.074Z,21.60
2019-03-19T08:47:47.232Z,21.60
2019-03-19T08:51:03.180Z,21.60
2019-03-19T08:54:18.588Z,21.60
2019-03-19T08:57:32.201Z,21.60
2019-03-19T09:00:54.882Z,21.70
2019-03-19T09:04:10.953Z,21.60
2019-03-19T09:07:26.985Z,21.70
2019-03-19T09:10:42.441Z,21.70
2019-03-19T09:13:58.564Z,21.70
2019-03-19T09:17:14.185Z,21.70
2019-03-19T09:20:29.435Z,21.70
2019-03-19T09:23:45.377Z,21.70
2019-03-19T09:27:00.814Z,21.80
2019-03-19T09:30:16.751Z,21.80
2019-03-19T09:33:32.067Z,21.80
2019-03-19T09:36:56.997Z,21.80
2019-03-19T09:40:05.044Z,21.80
2019-03-19T09:43:21.041Z,21.80
2019-03-19T09:46:37.114Z,21.80
2019-03-19T09:49:52.364Z,21.90
2019-03-19T09:53:07.752Z,21.90
2019-03-19T09:56:23.420Z,21.90
2019-03-19T09:59:42.006Z,21.90
2019-03-19T10:02:54.874Z,21.90
2019-03-19T10:06:17.585Z,21.90
2019-03-19T10:09:40.252Z,21.90
2019-03-19T10:13:02.937Z,21.90
2019-03-19T10:16:18.432Z,21.90
2019-03-19T10:19:33.642Z,22.00
2019-03-19T10:22:49.770Z,22.00
2019-03-19T10:26:05.742Z,22.00
2019-03-19T10:29:21.236Z,22.00
2019-03-19T10:32:36.709Z,22.00
2019-03-19T10:35:52.028Z,22.00
2019-03-19T10:39:09.029Z,22.00
2019-03-19T10:42:24.792Z,22.00
2019-03-19T10:45:40.818Z,22.10
2019-03-19T10:48:56.619Z,22.00
2019-03-19T10:52:11.843Z,22.10
2019-03-19T10:55:15.081Z,22.10
2019-03-19T10:58:37.778Z,22.10
2019-03-19T11:02:00.559Z,22.10
2019-03-19T11:05:16.304Z,22.10
2019-03-19T11:11:55.985Z,22.10
2019-03-19T11:15:11.739Z,22.20
2019-03-19T11:18:27.768Z,22.20
2019-03-19T11:21:41.499Z,22.20
2019-03-19T11:24:57.022Z,22.20
2019-03-19T11:28:13.901Z,22.20
2019-03-19T11:31:30.200Z,22.20
2019-03-19T11:34:46.308Z,22.20
2019-03-19T11:38:01.659Z,22.20
2019-03-19T11:41:17.772Z,22.20
2019-03-19T11:44:33.891Z,22.20
2019-03-19T11:47:49.276Z,22.20
2019-03-19T11:51:05.273Z,22.20
2019-03-19T11:54:20.758Z,22.20
2019-03-19T11:57:39.368Z,22.20
2019-03-19T12:00:59.418Z,22.20
2019-03-19T12:04:02.664Z,22.30
2019-03-19T12:07:25.350Z,22.30
2019-03-19T12:10:48.037Z,22.30
2019-03-19T12:14:03.537Z,22.30
2019-03-19T12:17:19.707Z,22.30
2019-03-19T12:20:35.133Z,22.30
2019-03-19T12:23:50.572Z,22.30
2019-03-19T12:27:05.768Z,22.30
2019-03-19T12:30:24.762Z,22.30
2019-03-19T12:33:41.149Z,22.30
2019-03-19T12:36:56.593Z,22.30
2019-03-19T12:40:13.715Z,22.30
2019-03-19T12:43:29.546Z,22.40
2019-03-19T12:46:43.176Z,22.40
2019-03-19T12:49:58.728Z,22.40
2019-03-19T12:53:14.777Z,22.40
2019-03-19T12:56:30.192Z,22.40
2019-03-19T12:59:43.790Z,22.40
2019-03-19T13:03:06.464Z,22.40
2019-03-19T13:06:22.019Z,22.40
2019-03-19T13:09:35.687Z,22.40
2019-03-19T13:12:58.374Z,22.40
2019-03-19T13:16:13.752Z,22.40
2019-03-19T13:19:29.066Z,22.40
2019-03-19T13:22:45.142Z,22.40
2019-03-19T13:26:00.337Z,22.40
2019-03-19T13:29:16.230Z,22.40
2019-03-19T13:32:31.636Z,22.40
2019-03-19T13:35:47.002Z,22.40
2019-03-19T13:39:05.555Z,22.40
2019-03-19T13:42:21.281Z,22.40
2019-03-19T13:45:37.275Z,22.40
2019-03-19T13:48:53.191Z,22.40
2019-03-19T13:52:10.845Z,22.40
2019-03-19T13:55:26.193Z,22.40
2019-03-19T13:58:42.772Z,22.40
2019-03-19T14:01:58.276Z,22.40
2019-03-19T14:05:14.293Z,22.50
2019-03-19T14:08:29.745Z,22.50
2019-03-19T14:11:45.033Z,22.50
2019-03-19T14:15:04.337Z,22.50
2019-03-19T14:18:19.743Z,22.50
2019-03-19T14:21:35.855Z,22.50
2019-03-19T14:24:51.103Z,22.50
2019-03-19T14:28:06.362Z,22.50
2019-03-19T14:31:19.946Z,22.50
2019-03-19T14:34:42.632Z,22.50
2019-03-19T14:37:58.137Z,22.50
2019-03-19T14:41:13.620Z,22.50
2019-03-19T14:44:28.860Z,22.50
2019-03-19T14:47:44.330Z,22.50
2019-03-19T14:50:58.086Z,22.50
2019-03-19T14:54:20.792Z,22.60
2019-03-19T14:57:36.448Z,22.50
2019-03-19T15:00:50.116Z,22.30
2019-03-19T15:04:12.798Z,22.50
2019-03-19T15:07:30.084Z,22.50
2019-03-19T15:10:45.445Z,22.50
2019-03-19T15:14:00.979Z,22.50
2019-03-19T15:17:17.133Z,22.50
2019-03-19T15:20:33.154Z,22.50
2019-03-19T15:23:49.129Z,22.50
2019-03-19T15:27:07.464Z,22.50
2019-03-19T15:30:22.215Z,22.50
2019-03-19T15:33:37.662Z,22.50
2019-03-19T15:36:53.773Z,22.50
2019-03-19T15:40:09.997Z,22.50
2019-03-19T15:43:26.005Z,22.50
2019-03-19T15:46:41.269Z,22.50
2019-03-19T15:49:57.352Z,22.50
2019-03-19T15:53:13.393Z,22.50
2019-03-19T15:56:29.380Z,22.50
2019-03-19T15:59:45.322Z,22.50
2019-03-19T16:03:01.446Z,22.50
2019-03-19T16:06:04.801Z,22.50
2019-03-19T16:09:27.488Z,22.50
2019-03-19T16:12:50.168Z,22.50
2019-03-19T16:16:06.035Z,22.50
2019-03-19T16:19:22.069Z,22.50
2019-03-19T16:22:38.184Z,22.50
2019-03-19T16:25:53.379Z,22.50
2019-03-19T16:29:09.282Z,22.50
2019-03-19T16:32:24.524Z,22.50
2019-03-19T16:35:39.983Z,22.50
2019-03-19T16:38:55.317Z,22.50
2019-03-19T16:42:11.228Z,22.50
2019-03-19T16:45:27.177Z,22.50
2019-03-19T16:48:43.010Z,22.50
2019-03-19T16:51:59.061Z,22.50
2019-03-19T16:55:14.938Z,22.50
2019-03-19T16:58:30.779Z,22.50
2019-03-19T17:01:46.723Z,22.50
2019-03-19T17:05:02.085Z,22.50
2019-03-19T17:08:17.591Z,22.50
2019-03-19T17:11:32.791Z,22.50
2019-03-19T17:14:48.538Z,22.50
2019-03-19T17:18:03.777Z,22.50
2019-03-19T17:21:18.988Z,22.50
2019-03-19T17:24:34.231Z,22.50
2019-03-19T17:27:52.765Z,22.50
2019-03-19T17:31:08.582Z,22.50
2019-03-19T17:34:23.748Z,22.50
2019-03-19T17:37:39.003Z,22.50
2019-03-19T17:40:55.173Z,22.50
2019-03-19T17:44:10.997Z,22.50
2019-03-19T17:47:24.628Z,22.50
2019-03-19T17:50:40.478Z,22.50
2019-03-19T17:53:55.919Z,22.50
2019-03-19T17:57:11.937Z,22.50
2019-03-19T18:00:55.425Z,22.50
2019-03-19T18:04:18.103Z,22.50
2019-03-19T18:07:33.410Z,22.50
2019-03-19T18:10:49.475Z,22.50
2019-03-19T18:14:05.012Z,22.50
2019-03-19T18:17:20.982Z,22.50
2019-03-19T18:20:36.247Z,22.50
2019-03-19T18:23:51.709Z,22.50
2019-03-19T18:27:07.053Z,22.50
2019-03-19T18:30:23.131Z,22.50
2019-03-19T18:33:39.053Z,22.50
2019-03-19T18:36:54.952Z,22.50
2019-03-19T18:40:10.056Z,22.50
2019-03-19T18:43:26.041Z,22.50
2019-03-19T18:46:42.007Z,22.50
2019-03-19T18:49:57.452Z,22.50
2019-03-19T18:53:13.403Z,22.50
2019-03-19T18:56:16.722Z,22.50
2019-03-19T18:59:39.418Z,22.50
2019-03-19T19:02:54.843Z,22.50
2019-03-19T19:06:10.862Z,22.50
2019-03-19T19:09:26.161Z,22.50
2019-03-19T19:12:39.846Z,22.50
2019-03-19T19:16:02.548Z,22.50
2019-03-19T19:19:18.458Z,22.50
2019-03-19T19:22:34.561Z,22.50
2019-03-19T19:25:50.080Z,22.50
2019-03-19T19:29:05.287Z,22.50
2019-03-19T19:32:21.404Z,22.50
2019-03-19T19:35:37.233Z,22.50
2019-03-19T19:38:53.193Z,22.50
2019-03-19T19:42:08.597Z,22.50
2019-03-19T19:45:24.597Z,22.50
2019-03-19T19:48:40.557Z,22.50
2019-03-19T19:51:55.757Z,22.50
2019-03-19T19:58:32.873Z,22.50
2019-03-19T20:01:48.426Z,22.50
2019-03-19T20:05:04.487Z,22.50
2019-03-19T20:08:20.250Z,22.50
2019-03-19T20:11:38.532Z,22.50
2019-03-19T20:14:53.257Z,22.50
2019-03-19T20:18:08.865Z,22.50
2019-03-19T20:21:24.902Z,22.50
2019-03-19T20:24:40.632Z,22.50
2019-03-19T20:27:56.457Z,22.50
2019-03-19T20:31:12.284Z,22.50
2019-03-19T20:34:28.262Z,22.50
2019-03-19T20:37:43.627Z,22.50
2019-03-19T20:40:57.251Z,22.50
2019-03-19T20:44:12.652Z,22.50
2019-03-19T20:47:28.085Z,22.50
2019-03-19T20:50:45.946Z,22.50
2019-03-19T20:54:03.893Z,22.50
2019-03-19T20:57:19.043Z,22.50
2019-03-19T21:00:32.648Z,22.50
2019-03-19T21:03:48.388Z,22.50
2019-03-19T21:07:04.336Z,22.50
2019-03-19T21:10:21.100Z,22.40
2019-03-19T21:13:43.779Z,22.40
2019-03-19T21:16:57.615Z,22.40
2019-03-19T21:20:13.828Z,22.40
2019-03-19T21:23:29.925Z,22.40
2019-03-19T21:26:33.176Z,22.40
2019-03-19T21:29:55.902Z,22.30
2019-03-19T21:33:18.611Z,22.30
2019-03-19T21:36:34.001Z,22.30
2019-03-19T21:39:49.351Z,22.30
2019-03-19T21:43:05.504Z,22.30
2019-03-19T21:46:21.529Z,22.30
2019-03-19T21:49:37.625Z,22.30
2019-03-19T21:52:53.550Z,22.30
2019-03-19T21:56:07.212Z,22.30
2019-03-19T21:59:22.660Z,22.20
2019-03-19T22:02:38.544Z,22.30
2019-03-19T22:05:54.437Z,22.20
2019-03-19T22:09:09.660Z,22.20
2019-03-19T22:12:25.412Z,22.20
2019-03-19T22:15:40.820Z,22.20
2019-03-19T22:18:56.920Z,22.20
2019-03-19T22:22:12.912Z,22.20
2019-03-19T22:25:28.932Z,22.10
2019-03-19T22:28:44.921Z,22.10
2019-03-19T22:32:00.692Z,22.10
2019-03-19T22:35:16.100Z,22.10
2019-03-19T22:38:31.306Z,22.10
2019-03-19T22:41:46.521Z,22.10
2019-03-19T22:45:01.859Z,22.10
2019-03-19T22:48:17.829Z,22.10
2019-03-19T22:51:33.725Z,22.10
2019-03-19T22:54:48.969Z,22.10
2019-03-19T22:58:04.817Z,22.10
2019-03-19T23:01:20.828Z,22.00
2019-03-19T23:04:34.481Z,22.00
2019-03-19T23:07:57.160Z,22.00
2019-03-19T23:11:13.198Z,22.00
2019-03-19T23:14:29.200Z,22.00
2019-03-19T23:17:44.364Z,22.00
2019-03-19T23:21:00.397Z,23.00
2019-03-19T23:24:16.319Z,22.00
2019-03-19T23:27:31.586Z,22.00
2019-03-19T23:30:47.468Z,21.90
2019-03-19T23:34:02.811Z,21.90
2019-03-19T23:37:16.427Z,22.00
2019-03-19T23:40:31.697Z,22.00
2019-03-19T23:43:47.551Z,21.90
2019-03-19T23:47:03.164Z,21.90
2019-03-19T23:50:19.147Z,21.90
2019-03-19T23:53:35.244Z,21.90
2019-03-19T23:56:51.108Z,21.90
